Time;durP1;ratioP1;P1;durP2;ratioP2;P2;SDS_P1;SDS_P2;PMS_P1;PMS_P2;Temp;Humidity;BMP_temperature;BMP_pressure;BME280_temperature;BME280_humidity;BME280_pressure;Samples;Min_cycle;Max_cycle;Signal;HPM_P1;HPM_P2
2022/09/22 00:00:14;;;;;;;0.77;0.53;;;;;;;18.86;54.74;97188.16;10590176;27;20292;-29
2022/09/22 00:05:14;;;;;;;2.50;0.90;;;;;;;18.89;54.25;97178.88;10584765;27;20019;-29
2022/09/22 00:10:15;;;;;;;1.40;0.90;;;;;;;18.91;54.72;97178.91;10581860;27;20284;-29
2022/09/22 00:15:17;;;;;;;1.50;0.73;;;;;;;18.93;54.20;97179.75;10592945;27;20406;-29
2022/09/22 00:20:17;;;;;;;1.63;0.75;;;;;;;18.91;54.10;97183.97;10579019;27;20031;-30
2022/09/22 00:25:17;;;;;;;2.38;1.02;;;;;;;18.93;53.90;97178.03;10577359;27;20406;-30
2022/09/22 00:30:18;;;;;;;2.37;1.07;;;;;;;18.94;53.94;97166.22;10582465;27;20027;-29
2022/09/22 00:35:18;;;;;;;1.30;0.70;;;;;;;18.91;53.97;97164.50;10585224;27;20296;-29
2022/09/22 00:40:19;;;;;;;1.25;0.70;;;;;;;18.91;53.97;97171.28;10591398;27;20037;-30
2022/09/22 00:45:19;;;;;;;0.93;0.60;;;;;;;18.90;54.13;97167.88;10584885;27;20028;-30
2022/09/22 00:50:23;;;;;;;1.23;1.00;;;;;;;18.89;53.94;97166.19;10590179;27;20040;-29
2022/09/22 00:55:24;;;;;;;1.05;0.57;;;;;;;18.89;54.27;97157.72;10586459;27;20082;-31
2022/09/22 01:00:24;;;;;;;1.00;0.50;;;;;;;18.90;53.98;97156.88;10590688;28;20084;-29
2022/09/22 01:05:28;;;;;;;1.40;0.63;;;;;;;18.91;54.19;97145.91;10558345;28;20489;-30
2022/09/22 01:10:28;;;;;;;1.90;0.80;;;;;;;18.91;54.39;97149.28;10540343;28;20036;-29
2022/09/22 01:16:06;;;;;;;0.60;0.40;;;;;;;18.96;53.95;97145.09;10547180;28;20042;-29
2022/09/22 01:21:32;;;;;;;0.77;0.60;;;;;;;18.92;53.93;97145.06;10552365;28;20032;-29
2022/09/22 01:27:02;;;;;;;0.98;0.50;;;;;;;18.93;54.08;97146.75;10536960;28;20035;-29
2022/09/22 01:32:22;;;;;;;1.33;0.80;;;;;;;18.86;53.97;97137.41;10552580;28;20035;-30
2022/09/22 01:37:35;;;;;;;1.75;1.08;;;;;;;18.95;53.94;97142.53;10552328;28;20564;-29
2022/09/22 01:42:43;;;;;;;1.50;0.60;;;;;;;18.93;53.71;97131.53;10564115;28;20427;-30
2022/09/22 01:47:58;;;;;;;1.63;0.60;;;;;;;18.91;53.73;97135.75;10552174;28;20031;-30
2022/09/22 01:53:04;;;;;;;1.02;0.70;;;;;;;18.90;53.69;97117.16;10546778;28;20031;-29
2022/09/22 01:58:11;;;;;;;1.10;1.00;;;;;;;18.93;53.89;97123.94;10547124;28;20506;-29
2022/09/22 02:03:20;;;;;;;0.95;0.60;;;;;;;18.96;53.72;97126.47;10546708;28;20145;-29
2022/09/22 02:08:28;;;;;;;0.60;0.43;;;;;;;18.96;54.19;97119.72;10594956;27;20073;-31
2022/09/22 02:13:29;;;;;;;1.92;0.80;;;;;;;18.98;53.87;97120.56;10586684;27;20035;-29
2022/09/22 02:18:47;;;;;;;1.23;0.77;;;;;;;19.00;53.72;97128.19;10589588;27;20421;-29
2022/09/22 02:23:48;;;;;;;0.85;0.60;;;;;;;18.99;53.78;97126.50;10594326;27;20289;-30
2022/09/22 02:28:58;;;;;;;1.00;0.70;;;;;;;18.97;53.63;97115.47;10584069;27;20154;-29
2022/09/22 02:34:00;;;;;;;1.23;0.50;;;;;;;18.97;53.61;97116.34;10588603;27;20034;-30
2022/09/22 02:39:12;;;;;;;1.15;0.60;;;;;;;18.90;53.69;97107.00;10592761;27;20039;-29
2022/09/22 02:44:16;;;;;;;0.40;0.40;;;;;;;18.89;53.76;97112.06;10599258;27;20550;-30
2022/09/22 02:49:18;;;;;;;2.53;0.73;;;;;;;18.97;53.73;97116.34;10592555;27;20688;-29
2022/09/22 02:54:19;;;;;;;0.80;0.50;;;;;;;18.94;53.55;97113.78;10589185;27;20031;-29
2022/09/22 02:59:20;;;;;;;1.00;0.60;;;;;;;18.97;53.56;97129.03;10587013;27;20110;-29
2022/09/22 03:04:20;;;;;;;1.23;0.60;;;;;;;18.98;53.52;97124.78;10586848;27;20058;-29
2022/09/22 03:09:20;;;;;;;2.27;0.57;;;;;;;18.98;53.79;97124.78;10598293;27;20036;-30
2022/09/22 03:14:21;;;;;;;1.10;0.60;;;;;;;18.99;53.77;97123.97;10591094;27;20401;-29
2022/09/22 03:19:21;;;;;;;2.97;0.90;;;;;;;18.97;53.71;97118.00;10579964;27;20037;-30
2022/09/22 03:24:21;;;;;;;1.33;0.60;;;;;;;18.99;53.55;97116.34;10595948;27;20077;-30
2022/09/22 03:29:22;;;;;;;0.80;0.43;;;;;;;18.98;53.48;97110.41;10577657;27;20094;-30
2022/09/22 03:34:22;;;;;;;1.43;0.60;;;;;;;19.00;53.33;97118.03;10594821;27;20042;-29
2022/09/22 03:39:22;;;;;;;1.27;0.70;;;;;;;19.02;53.59;97116.34;10589599;27;20027;-29
2022/09/22 03:44:25;;;;;;;0.50;0.50;;;;;;;19.06;53.50;97112.97;10580689;27;20028;-29
2022/09/22 03:49:25;;;;;;;1.23;0.60;;;;;;;19.04;53.50;97113.00;10589871;27;20062;-29
2022/09/22 03:54:26;;;;;;;0.80;0.60;;;;;;;19.05;53.38;97112.13;10573796;27;20027;-30
2022/09/22 03:59:26;;;;;;;1.90;0.67;;;;;;;19.09;53.53;97102.84;10577453;27;20368;-29
2022/09/22 04:04:27;;;;;;;0.73;0.50;;;;;;;19.09;54.12;97097.78;10599110;27;20277;-30
2022/09/22 04:09:27;;;;;;;0.70;0.40;;;;;;;19.11;54.04;97096.09;10605589;27;20406;-29
2022/09/22 04:14:28;;;;;;;1.37;0.80;;;;;;;19.13;53.52;97092.72;10592161;27;20039;-29
2022/09/22 04:19:28;;;;;;;1.33;0.70;;;;;;;19.12;53.65;97088.47;10577780;27;20038;-29
2022/09/22 04:24:28;;;;;;;1.70;0.60;;;;;;;19.08;53.69;97086.75;10595937;27;20042;-31
2022/09/22 04:29:29;;;;;;;1.13;0.50;;;;;;;19.14;53.40;97096.09;10574518;27;20044;-30
2022/09/22 04:34:30;;;;;;;5.25;0.98;;;;;;;19.13;53.74;97096.94;10597107;27;20455;-31
2022/09/22 04:39:30;;;;;;;3.10;0.73;;;;;;;19.12;53.26;97093.56;10586937;27;20409;-30
2022/09/22 04:44:30;;;;;;;0.73;0.43;;;;;;;19.13;52.61;97084.25;10585168;27;20285;-31
2022/09/22 04:49:31;;;;;;;1.02;0.50;;;;;;;19.07;51.77;97092.69;10588325;27;20786;-31
2022/09/22 04:54:31;;;;;;;1.67;0.70;;;;;;;19.12;52.05;97100.31;10589872;27;20039;-31
2022/09/22 04:59:31;;;;;;;6.37;1.47;;;;;;;19.12;52.50;97088.47;10584104;28;20118;-30
2022/09/22 05:04:32;;;;;;;8.10;1.83;;;;;;;19.05;51.71;97090.97;10590836;28;20289;-31
2022/09/22 05:09:32;;;;;;;6.07;1.05;;;;;;;19.11;52.82;97086.78;10573564;28;20038;-31
2022/09/22 05:14:34;;;;;;;1.03;0.70;;;;;;;19.08;52.84;97080.84;10583471;28;20031;-30
2022/09/22 05:19:34;;;;;;;1.58;0.65;;;;;;;19.12;52.93;97092.69;10584275;28;20452;-31
2022/09/22 05:24:35;;;;;;;4.93;1.13;;;;;;;18.88;49.07;97093.47;10584039;28;20106;-32
2022/09/22 05:29:35;;;;;;;7.10;1.40;;;;;;;18.92;50.16;97094.31;10579067;28;20047;-30
2022/09/22 05:34:35;;;;;;;4.67;0.93;;;;;;;18.95;51.34;97104.47;10587239;28;20087;-31
2022/09/22 05:39:36;;;;;;;8.20;1.07;;;;;;;18.98;51.59;97104.47;10587946;28;20038;-30
2022/09/22 05:44:36;;;;;;;1.77;0.80;;;;;;;19.01;52.04;97105.34;10585787;28;20032;-31
2022/09/22 05:49:36;;;;;;;40.77;3.67;;;;;;;19.00;52.58;97108.72;10588871;28;20165;-31
2022/09/22 05:54:37;;;;;;;9.93;1.27;;;;;;;19.02;52.90;97104.50;10586048;28;20406;-31
2022/09/22 05:59:37;;;;;;;6.30;1.00;;;;;;;19.05;52.77;97102.00;10586943;28;20079;-31
2022/09/22 06:04:37;;;;;;;10.13;1.37;;;;;;;19.09;52.89;97092.69;10588947;27;20088;-30
2022/09/22 06:09:38;;;;;;;6.23;1.70;;;;;;;19.17;52.90;97091.88;10597992;27;20031;-30
2022/09/22 06:14:39;;;;;;;2.42;1.10;;;;;;;19.14;52.98;97101.16;10586539;27;20298;-31
2022/09/22 06:19:39;;;;;;;4.60;1.05;;;;;;;19.17;52.94;97099.47;10583582;27;20479;-30
2022/09/22 06:24:40;;;;;;;4.03;1.10;;;;;;;19.17;52.70;97102.03;10596667;27;20395;-30
2022/09/22 06:29:41;;;;;;;1.30;0.90;;;;;;;19.19;52.92;97102.06;10584402;27;20036;-31
2022/09/22 06:34:43;;;;;;;7.05;1.70;;;;;;;19.18;53.31;97107.97;10588041;27;20112;-30
2022/09/22 06:39:43;;;;;;;3.13;0.98;;;;;;;19.20;53.08;97101.22;10594066;27;20102;-31
2022/09/22 06:44:44;;;;;;;2.05;0.90;;;;;;;19.16;53.17;97091.88;10590273;27;20076;-30
2022/09/22 06:49:45;;;;;;;2.05;0.98;;;;;;;19.17;53.18;97089.31;10596890;27;20066;-31
2022/09/22 06:54:47;;;;;;;4.45;1.20;;;;;;;19.16;52.79;97084.28;10591007;27;20410;-31
2022/09/22 06:59:47;;;;;;;5.38;1.00;;;;;;;19.16;53.25;97089.34;10578392;27;20035;-31
2022/09/22 07:04:47;;;;;;;4.97;1.40;;;;;;;19.16;53.32;97099.50;10578531;27;20391;-30
2022/09/22 07:09:48;;;;;;;2.10;1.37;;;;;;;19.18;53.15;97093.56;10586307;27;20031;-30
2022/09/22 07:14:49;;;;;;;5.33;1.33;;;;;;;19.19;53.21;97099.53;10586865;27;20043;-31
2022/09/22 07:19:50;;;;;;;6.32;2.38;;;;;;;19.17;53.04;97096.13;10593431;27;20296;-31
2022/09/22 07:24:51;;;;;;;7.57;1.77;;;;;;;19.12;52.57;97087.63;10586319;27;20032;-32
2022/09/22 07:29:53;;;;;;;2.77;1.47;;;;;;;19.10;52.99;97085.06;10583689;27;20054;-31
2022/09/22 07:34:53;;;;;;;8.07;2.65;;;;;;;19.14;53.09;97083.38;10600524;27;20028;-34
2022/09/22 07:39:54;;;;;;;5.10;1.98;;;;;;;19.13;52.97;97089.31;10597850;27;20029;-31
2022/09/22 07:45:12;;;;;;;4.10;1.70;;;;;;;19.07;53.26;97086.75;10589117;27;20027;-33
2022/09/22 07:50:16;;;;;;;3.20;2.00;;;;;;;19.07;53.27;97074.91;10591800;27;20490;-31
2022/09/22 07:55:16;;;;;;;3.88;1.27;;;;;;;19.05;53.42;97074.06;10588409;27;20510;-32
2022/09/22 08:00:17;;;;;;;4.32;1.88;;;;;;;19.04;53.29;97074.06;10591741;27;20058;-31
2022/09/22 08:05:17;;;;;;;3.95;1.80;;;;;;;19.13;53.21;97076.63;10582054;27;20386;-31
2022/09/22 08:10:18;;;;;;;2.07;1.17;;;;;;;19.10;53.24;97074.09;10579638;27;20047;-31
2022/09/22 08:15:22;;;;;;;1.92;1.10;;;;;;;19.08;53.44;97076.59;10589875;27;20261;-31
2022/09/22 08:20:25;;;;;;;6.63;1.27;;;;;;;19.05;53.36;97075.75;10591974;27;20405;-30
2022/09/22 08:25:25;;;;;;;2.17;1.60;;;;;;;19.00;53.44;97072.38;10583145;27;20031;-30
2022/09/22 08:30:25;;;;;;;3.70;1.50;;;;;;;19.02;53.58;97079.13;10582977;27;20383;-31
2022/09/22 08:35:26;;;;;;;3.53;1.30;;;;;;;18.99;53.62;97070.69;10595034;27;20084;-30
2022/09/22 08:40:27;;;;;;;5.97;1.50;;;;;;;19.02;53.57;97075.75;10590314;27;20038;-31
2022/09/22 08:45:37;;;;;;;2.33;1.45;;;;;;;19.01;53.58;97081.66;10588141;27;20113;-31
2022/09/22 08:56:34;;;;;;;3.05;1.02;;;;;;;18.99;53.77;97070.69;10579692;27;20114;-31
2022/09/22 09:01:59;;;;;;;3.78;1.30;;;;;;;19.04;53.47;97069.84;10590120;28;20039;-33
2022/09/22 09:07:06;;;;;;;3.15;1.40;;;;;;;19.05;53.49;97066.47;10577901;28;20303;-31
2022/09/22 09:12:23;;;;;;;2.50;1.08;;;;;;;19.05;53.90;97070.69;10582782;28;20028;-32
2022/09/22 09:17:29;;;;;;;4.03;1.42;;;;;;;18.97;53.70;97067.25;10587089;28;20043;-30
2022/09/22 09:22:39;;;;;;;2.22;1.10;;;;;;;18.98;53.65;97079.09;10597296;28;20036;-32
2022/09/22 09:27:42;;;;;;;3.38;1.48;;;;;;;19.00;53.72;97077.44;10575725;28;20488;-30
2022/09/22 09:32:59;;;;;;;2.40;1.00;;;;;;;19.00;53.76;97077.44;10583789;28;20095;-31
2022/09/22 09:38:00;;;;;;;;;;;;;;;18.98;53.70;97076.56;10579215;27;20070;-31
2022/09/22 09:43:04;;;;;;;2.72;1.40;;;;;;;18.97;53.84;97069.78;10595815;27;19947;-31
2022/09/22 09:48:33;;;;;;;4.78;1.10;;;;;;;18.91;52.99;97065.56;10602249;27;20051;-31
2022/09/22 09:53:43;;;;;;;7.72;1.45;;;;;;;18.98;54.15;97061.34;10594408;27;20043;-30
2022/09/22 10:04:28;;;;;;;5.97;1.35;;;;;;;19.00;53.88;97052.91;10582590;27;20034;-31
2022/09/22 10:09:29;;;;;;;4.18;1.65;;;;;;;19.00;53.99;97052.06;10591117;27;20562;-31
2022/09/22 10:14:32;;;;;;;13.63;1.67;;;;;;;18.90;54.46;97047.78;10592695;27;20042;-30
2022/09/22 10:19:33;;;;;;;12.77;1.30;;;;;;;18.96;54.29;97046.13;10590221;27;20035;-31
2022/09/22 10:24:35;;;;;;;4.18;1.38;;;;;;;18.96;54.36;97037.66;10590969;27;20032;-31
2022/09/22 10:29:35;;;;;;;4.55;1.33;;;;;;;18.95;54.61;97041.03;10585664;27;20207;-31
2022/09/22 10:34:38;;;;;;;5.53;1.37;;;;;;;18.94;54.50;97041.88;10586094;27;20501;-31
2022/09/22 10:39:44;;;;;;;7.07;1.70;;;;;;;18.96;54.33;97041.06;10582459;27;20376;-31
2022/09/22 10:44:45;;;;;;;3.75;1.00;;;;;;;18.96;54.60;97040.19;10592785;27;20585;-31
2022/09/22 10:49:48;;;;;;;5.05;1.25;;;;;;;18.97;54.61;97034.28;10587401;27;20024;-30
2022/09/22 10:55:10;;;;;;;2.70;1.30;;;;;;;18.97;54.70;97031.75;10599363;27;20066;-30
2022/09/22 11:00:18;;;;;;;9.38;1.92;;;;;;;18.99;54.53;97025.84;10568127;27;20511;-31
2022/09/22 11:16:59;;;;;;;9.18;1.92;;;;;;;18.97;54.65;97014.84;10549184;27;20054;-31
2022/09/22 11:22:12;;;;;;;3.33;1.35;;;;;;;18.94;54.92;97021.59;10547484;27;20423;-31
2022/09/22 11:27:44;;;;;;;4.10;1.13;;;;;;;18.91;54.84;97007.19;10555819;27;20039;-30
2022/09/22 11:33:09;;;;;;;4.00;1.17;;;;;;;18.96;54.85;97018.22;10560722;27;20034;-30
2022/09/22 11:38:15;;;;;;;2.63;1.02;;;;;;;18.98;54.91;97014.00;10554438;27;20058;-32
2022/09/22 11:43:44;;;;;;;4.45;1.13;;;;;;;18.97;55.03;97025.00;10552923;28;20066;-31
2022/09/22 11:49:10;;;;;;;1.95;1.25;;;;;;;18.97;54.97;97012.31;10567988;27;20043;-32
2022/09/22 11:54:32;;;;;;;2.45;1.20;;;;;;;18.97;54.96;97007.22;10572263;27;20038;-32
2022/09/22 11:59:45;;;;;;;8.45;2.45;;;;;;;18.98;55.70;97005.53;10571924;27;20035;-30
2022/09/22 12:04:54;;;;;;;6.05;1.70;;;;;;;18.99;56.93;96999.63;10590125;27;20039;-31
2022/09/22 12:10:05;;;;;;;12.73;2.05;;;;;;;19.03;55.95;96986.09;10579210;27;20170;-31
2022/09/22 12:15:18;;;;;;;8.23;1.17;;;;;;;19.01;55.20;96983.53;10592716;27;20040;-30
2022/09/22 12:20:27;;;;;;;5.25;2.15;;;;;;;19.00;55.42;96986.09;10585608;27;20737;-30
2022/09/22 12:25:50;;;;;;;8.25;1.60;;;;;;;18.92;55.13;96970.84;10574640;27;20028;-31
2022/09/22 12:31:00;;;;;;;2.10;1.25;;;;;;;18.99;55.33;96979.31;10576967;27;20419;-32
2022/09/22 12:36:01;;;;;;;4.03;1.10;;;;;;;18.97;55.24;96981.00;10582695;27;20031;-31
2022/09/22 12:41:03;;;;;;;5.85;1.38;;;;;;;18.97;55.39;96965.75;10589716;27;20476;-30
2022/09/22 12:46:16;;;;;;;3.75;1.20;;;;;;;18.96;55.27;96974.22;10579004;27;20088;-31
2022/09/22 12:51:23;;;;;;;4.30;1.08;;;;;;;18.95;54.96;96963.25;10586436;27;20039;-31
2022/09/22 12:56:46;;;;;;;4.97;1.10;;;;;;;18.96;54.83;96962.41;10583968;27;20079;-31
2022/09/22 13:02:15;;;;;;;7.47;2.13;;;;;;;18.99;55.62;96959.03;10587600;28;20047;-31
2022/09/22 13:07:38;;;;;;;9.57;1.67;;;;;;;19.13;55.23;96952.25;10575558;28;20035;-31
2022/09/22 13:12:38;;;;;;;12.38;2.10;;;;;;;19.12;54.73;96948.03;10581145;27;20114;-31
2022/09/22 13:17:48;;;;;;;18.13;1.77;;;;;;;19.15;55.62;96940.41;10593823;27;20027;-31
2022/09/22 13:22:49;;;;;;;11.52;1.67;;;;;;;19.12;55.18;96941.28;10590578;27;20031;-31
2022/09/22 13:28:14;;;;;;;8.43;2.33;;;;;;;19.09;55.06;96938.72;10575414;27;20082;-31
2022/09/22 13:33:25;;;;;;;7.03;1.20;;;;;;;18.99;54.80;96931.94;10592356;27;20051;-31
2022/09/22 13:38:27;;;;;;;8.10;1.80;;;;;;;19.03;54.96;96935.34;10593077;27;20476;-31
2022/09/22 13:43:37;;;;;;;3.45;1.17;;;;;;;18.95;54.56;96921.78;10594420;27;20410;-30
2022/09/22 13:48:38;;;;;;;7.15;1.65;;;;;;;19.01;55.04;96922.63;10597017;27;20445;-31
2022/09/22 13:53:50;;;;;;;6.22;1.70;;;;;;;19.01;54.70;96921.81;10597814;27;20105;-30
2022/09/22 13:58:55;;;;;;;14.20;3.08;;;;;;;19.02;55.26;96920.97;10575822;27;20487;-31
2022/09/22 14:03:56;;;;;;;8.77;1.63;;;;;;;19.03;55.04;96915.03;10595683;27;20031;-31
2022/09/22 14:08:57;;;;;;;6.80;1.60;;;;;;;19.03;54.91;96908.28;10601087;27;20073;-31
2022/09/22 14:14:00;;;;;;;8.27;1.42;;;;;;;19.03;54.97;96907.44;10589196;27;20034;-30
2022/09/22 14:19:07;;;;;;;4.18;1.73;;;;;;;19.02;55.11;96904.03;10591509;27;20473;-31
2022/09/22 14:24:11;;;;;;;6.10;1.60;;;;;;;19.00;55.33;96900.66;10596565;27;20112;-30
2022/09/22 14:29:21;;;;;;;6.28;1.52;;;;;;;19.02;55.22;96905.75;10566655;27;20371;-31
2022/09/22 14:34:26;;;;;;;4.45;1.25;;;;;;;18.98;55.27;96887.13;10597339;27;20035;-31
2022/09/22 14:39:33;;;;;;;5.45;1.67;;;;;;;18.98;55.17;96891.34;10592527;27;20087;-31
2022/09/22 14:44:36;;;;;;;3.65;1.50;;;;;;;19.00;55.41;96884.59;10592132;27;20555;-30
2022/09/22 14:49:41;;;;;;;8.10;1.88;;;;;;;19.00;55.76;96892.22;10596658;27;20035;-31
2022/09/22 14:54:43;;;;;;;7.15;2.70;;;;;;;19.00;56.13;96893.03;10590001;27;20122;-31
2022/09/22 15:05:24;;;;;;;2.72;1.30;;;;;;;19.00;55.73;96887.13;10578226;27;20060;-31
2022/09/22 15:10:30;;;;;;;8.15;2.25;;;;;;;19.00;55.62;96884.59;10580929;27;20115;-31
2022/09/22 15:15:30;;;;;;;4.00;1.63;;;;;;;18.98;55.68;96876.97;10595142;27;20023;-31
2022/09/22 15:20:41;;;;;;;5.10;2.20;;;;;;;18.98;55.86;96876.13;10582700;27;20038;-31
2022/09/22 15:25:43;;;;;;;5.63;1.50;;;;;;;19.01;55.90;96882.03;10579991;27;20032;-31
2022/09/22 15:30:46;;;;;;;6.63;1.70;;;;;;;18.98;55.92;96876.13;10588127;27;20031;-31
2022/09/22 15:35:55;;;;;;;5.57;1.40;;;;;;;18.97;55.89;96882.91;10592003;27;20052;-31
2022/09/22 15:40:56;;;;;;;3.60;1.45;;;;;;;18.99;55.68;96877.84;10585975;27;20137;-30
2022/09/22 15:46:18;;;;;;;3.95;1.23;;;;;;;18.98;56.14;96871.91;10582707;27;20032;-30
2022/09/22 15:51:18;;;;;;;3.63;1.30;;;;;;;19.00;56.69;96871.91;10588455;27;20084;-31
2022/09/22 15:56:21;;;;;;;5.53;1.37;;;;;;;19.00;56.33;96869.38;10587203;27;20119;-31
2022/09/22 16:01:21;;;;;;;3.75;1.20;;;;;;;18.97;56.01;96865.13;10590267;27;20028;-30
2022/09/22 16:06:22;;;;;;;4.77;1.70;;;;;;;18.91;56.28;96864.31;10590570;27;20073;-30
2022/09/22 16:11:28;;;;;;;7.47;1.53;;;;;;;18.98;55.72;96860.88;10563670;27;20036;-31
2022/09/22 16:16:31;;;;;;;3.55;1.33;;;;;;;18.99;56.19;96871.06;10597909;27;20534;-31
2022/09/22 16:21:33;;;;;;;2.50;1.08;;;;;;;19.00;56.27;96884.59;10591193;27;20035;-30
2022/09/22 16:26:36;;;;;;;2.63;1.40;;;;;;;18.99;56.34;96876.13;10577609;27;20026;-32
2022/09/22 16:31:36;;;;;;;5.18;1.77;;;;;;;18.99;56.35;96878.66;10579357;27;20028;-31
2022/09/22 16:36:38;;;;;;;5.67;2.07;;;;;;;18.98;56.62;96871.03;10592453;27;20118;-32
2022/09/22 16:41:43;;;;;;;5.55;1.38;;;;;;;18.97;56.29;96874.44;10580244;27;20376;-31
2022/09/22 16:46:44;;;;;;;10.63;1.42;;;;;;;19.01;56.21;96876.97;10583500;27;20039;-31
2022/09/22 16:51:48;;;;;;;5.30;2.20;;;;;;;19.06;57.09;96874.44;10585695;27;20106;-31
2022/09/22 16:56:49;;;;;;;15.82;3.10;;;;;;;19.04;58.04;96877.00;10575006;27;20578;-30
2022/09/22 17:01:50;;;;;;;12.43;1.75;;;;;;;19.05;57.34;96882.88;10581310;28;20039;-32
2022/09/22 17:06:51;;;;;;;7.07;1.67;;;;;;;19.02;57.53;96870.22;10584982;28;20107;-31
2022/09/22 17:11:53;;;;;;;7.55;2.45;;;;;;;18.98;57.33;96882.06;10583418;28;20055;-32
2022/09/22 17:16:55;;;;;;;9.60;1.47;;;;;;;19.02;56.85;96872.75;10594850;28;20035;-30
2022/09/22 17:21:56;;;;;;;8.13;1.83;;;;;;;18.98;57.20;96878.66;10584876;28;20055;-31
2022/09/22 17:26:57;;;;;;;6.50;1.38;;;;;;;19.02;56.96;96885.44;10592459;28;20521;-31
2022/09/22 17:32:01;;;;;;;6.65;1.77;;;;;;;18.91;56.98;96876.97;10581754;28;20035;-31
2022/09/22 17:37:02;;;;;;;24.02;4.55;;;;;;;18.95;56.79;96879.53;10599214;28;20023;-31
2022/09/22 17:42:03;;;;;;;11.82;1.80;;;;;;;18.98;56.89;96887.13;10578015;28;20062;-31
2022/09/22 17:57:35;;;;;;;5.97;1.17;;;;;;;19.00;57.57;96899.81;10568337;28;20023;-31
2022/09/22 18:02:35;;;;;;;4.45;1.40;;;;;;;18.97;57.48;96907.41;10591475;27;20214;-31
2022/09/22 18:07:38;;;;;;;4.38;1.45;;;;;;;18.95;57.21;96911.66;10592696;27;20042;-31
2022/09/22 18:12:40;;;;;;;7.38;2.58;;;;;;;18.96;56.83;96915.88;10578647;27;20047;-31
2022/09/22 18:17:41;;;;;;;9.73;1.60;;;;;;;18.96;56.45;96918.41;10587409;27;20046;-30
2022/09/22 18:22:46;;;;;;;6.07;1.58;;;;;;;19.00;57.17;96922.66;10585349;27;20185;-30
2022/09/22 18:27:49;;;;;;;8.95;2.38;;;;;;;19.01;58.42;96922.63;10577376;27;20028;-32
2022/09/22 18:32:50;;;;;;;6.75;2.20;;;;;;;19.03;58.79;96925.19;10575326;27;20076;-30
2022/09/22 18:37:50;;;;;;;7.00;1.67;;;;;;;18.92;56.85;96911.66;10587234;27;20119;-31
2022/09/22 18:42:51;;;;;;;2.50;1.30;;;;;;;18.96;57.59;96928.56;10597579;27;20039;-31
2022/09/22 18:47:51;;;;;;;3.03;1.20;;;;;;;18.94;57.38;96927.72;10600604;27;20023;-31
2022/09/22 18:52:55;;;;;;;3.33;1.27;;;;;;;19.10;57.03;96929.44;10592626;27;20513;-31
2022/09/22 18:57:55;;;;;;;5.03;1.35;;;;;;;19.11;57.39;96936.19;10589201;27;20046;-30
2022/09/22 19:02:57;;;;;;;2.87;1.13;;;;;;;19.14;56.51;96942.13;10580744;27;20032;-30
2022/09/22 19:07:59;;;;;;;4.63;1.30;;;;;;;19.15;56.52;96937.88;10581340;27;20019;-30
2022/09/22 19:13:00;;;;;;;3.10;1.73;;;;;;;19.12;56.63;96940.41;10583528;27;20546;-32
2022/09/22 19:18:01;;;;;;;4.05;1.40;;;;;;;19.13;56.80;96939.56;10589381;27;20085;-31
2022/09/22 19:23:01;;;;;;;2.57;1.27;;;;;;;19.13;56.68;96942.09;10594796;27;20101;-30
2022/09/22 19:28:03;;;;;;;4.88;1.20;;;;;;;19.10;57.42;96937.03;10578796;27;20044;-30
2022/09/22 19:33:03;;;;;;;4.85;1.42;;;;;;;19.09;57.03;96932.81;10586964;27;20043;-31
2022/09/22 19:38:04;;;;;;;3.10;1.42;;;;;;;19.07;57.05;96925.19;10584312;27;20044;-31
2022/09/22 19:43:04;;;;;;;7.38;1.27;;;;;;;19.07;57.78;96929.41;10596424;27;20403;-30
2022/09/22 19:48:05;;;;;;;3.72;1.00;;;;;;;19.08;58.01;96931.13;10597625;27;20068;-30
2022/09/22 19:53:05;;;;;;;5.03;1.20;;;;;;;19.06;59.64;96925.19;10592426;27;20482;-31
2022/09/22 19:58:06;;;;;;;3.20;1.20;;;;;;;19.04;59.24;96932.81;10588482;27;20297;-30
2022/09/22 20:03:07;;;;;;;2.47;1.13;;;;;;;19.06;58.12;96926.03;10585429;27;20122;-30
2022/09/22 20:08:16;;;;;;;3.27;1.20;;;;;;;19.00;57.77;96909.97;10586501;27;20044;-30
2022/09/22 20:18:35;;;;;;;3.80;1.15;;;;;;;19.00;58.22;96915.88;10591657;27;20144;-30
2022/09/22 20:23:35;;;;;;;1.70;1.13;;;;;;;18.98;58.38;96907.41;10594926;27;20064;-31
2022/09/22 20:28:38;;;;;;;5.63;1.30;;;;;;;19.00;58.25;96907.44;10577628;27;20289;-31
2022/09/22 20:33:40;;;;;;;2.67;1.15;;;;;;;18.98;58.58;96901.50;10586221;27;20091;-30
2022/09/22 20:38:40;;;;;;;2.20;1.00;;;;;;;18.98;58.46;96907.41;10582364;27;20024;-31
2022/09/22 20:43:41;;;;;;;2.50;1.25;;;;;;;18.97;58.14;96909.94;10596202;27;20043;-31
2022/09/22 20:48:42;;;;;;;2.77;1.10;;;;;;;18.94;59.32;96897.28;10587963;27;20040;-31
2022/09/22 20:53:42;;;;;;;3.35;1.25;;;;;;;19.02;58.82;96908.28;10574121;28;20043;-31
2022/09/22 20:58:44;;;;;;;2.40;1.37;;;;;;;19.02;58.77;96904.03;10585010;27;20036;-31
2022/09/22 21:03:45;;;;;;;2.20;1.05;;;;;;;18.98;58.32;96902.34;10587643;27;20698;-31
2022/09/22 21:14:05;;;;;;;2.40;1.00;;;;;;;18.96;58.03;96900.66;10583252;28;20093;-30
2022/09/22 21:19:06;;;;;;;1.77;1.00;;;;;;;18.94;57.73;96894.72;10584428;28;20456;-30
2022/09/22 21:24:07;;;;;;;2.78;1.00;;;;;;;18.95;58.08;96891.34;10594850;28;20031;-30
2022/09/22 21:29:09;;;;;;;2.03;1.00;;;;;;;18.93;57.92;96887.97;10579852;28;20106;-31
2022/09/22 21:34:10;;;;;;;2.90;1.08;;;;;;;18.92;57.83;96891.34;10577448;27;20059;-30
2022/09/22 21:39:10;;;;;;;6.13;1.08;;;;;;;18.84;57.81;96871.03;10596436;27;20043;-31
2022/09/22 21:44:11;;;;;;;2.10;1.25;;;;;;;18.88;58.00;96876.97;10596206;27;20037;-30
2022/09/22 21:49:11;;;;;;;3.03;1.17;;;;;;;18.91;58.18;96885.41;10595624;27;20037;-30
2022/09/22 21:54:15;;;;;;;2.57;1.40;;;;;;;18.96;58.72;96893.91;10598244;27;20027;-31
2022/09/22 21:59:16;;;;;;;2.03;1.00;;;;;;;18.92;58.85;96892.19;10591239;27;20296;-30
2022/09/22 22:04:16;;;;;;;2.93;1.00;;;;;;;18.95;58.06;96881.19;10595015;27;20413;-31
2022/09/22 22:09:21;;;;;;;2.00;1.00;;;;;;;18.92;58.08;96876.97;10602598;27;20536;-30
2022/09/22 22:14:24;;;;;;;1.55;1.10;;;;;;;18.91;57.99;96869.38;10588190;27;20031;-31
2022/09/22 22:19:25;;;;;;;2.10;0.95;;;;;;;18.89;58.08;96865.97;10589016;27;20503;-30
2022/09/22 22:24:41;;;;;;;2.22;1.08;;;;;;;18.87;58.10;96860.91;10594372;27;20414;-30
2022/09/22 22:29:41;;;;;;;1.70;0.70;;;;;;;18.87;57.74;96857.50;10580580;27;20523;-31
2022/09/22 22:34:41;;;;;;;1.80;0.97;;;;;;;18.84;57.85;96863.44;10601816;27;20126;-30
2022/09/22 22:39:42;;;;;;;1.07;0.90;;;;;;;18.86;57.72;96866.84;10592511;27;21026;-31
2022/09/22 22:44:42;;;;;;;2.72;0.80;;;;;;;18.85;57.78;96857.50;10600241;27;20031;-30
2022/09/22 22:49:43;;;;;;;1.53;0.73;;;;;;;18.87;57.97;96860.91;10594199;27;20522;-30
2022/09/22 22:54:43;;;;;;;2.47;0.80;;;;;;;18.87;58.19;96849.91;10588718;27;20038;-31
2022/09/22 22:59:43;;;;;;;3.67;0.80;;;;;;;18.90;58.35;96853.28;10588447;27;20046;-31
2022/09/22 23:04:44;;;;;;;1.47;0.83;;;;;;;18.87;58.10;96848.22;10571826;27;20031;-31
2022/09/22 23:09:44;;;;;;;1.30;0.90;;;;;;;18.90;57.87;96849.91;10554204;28;20040;-30
2022/09/22 23:14:44;;;;;;;1.50;0.80;;;;;;;18.87;57.75;96849.91;10544704;28;20036;-30
2022/09/22 23:19:45;;;;;;;3.27;0.93;;;;;;;18.79;57.56;96839.75;10544783;28;20051;-31
2022/09/22 23:24:46;;;;;;;1.73;0.80;;;;;;;18.85;57.56;96846.53;10550241;28;20380;-30
2022/09/22 23:29:47;;;;;;;1.63;1.10;;;;;;;18.84;57.80;96852.44;10536668;28;20040;-30
2022/09/22 23:34:47;;;;;;;2.37;0.83;;;;;;;18.84;57.84;96847.38;10545342;28;20032;-31
2022/09/22 23:39:49;;;;;;;2.07;1.07;;;;;;;18.84;57.56;96847.38;10548429;28;20285;-30
2022/09/22 23:44:49;;;;;;;2.70;0.70;;;;;;;18.82;57.65;96844.00;10555681;28;20054;-30
2022/09/22 23:49:50;;;;;;;2.15;0.90;;;;;;;18.80;57.86;96836.38;10545620;28;20123;-31
2022/09/22 23:54:50;;;;;;;1.13;0.60;;;;;;;18.89;58.13;96841.47;10552905;28;20063;-31
2022/09/22 23:59:50;;;;;;;2.30;0.80;;;;;;;18.86;58.14;96846.53;10544040;28;20297;-28
